Time;durP1;ratioP1;P1;durP2;ratioP2;P2;SDS_P1;SDS_P2;PMS_P1;PMS_P2;Temp;Humidity;BMP_temperature;BMP_pressure;BME280_temperature;BME280_humidity;BME280_pressure;Samples;Min_cycle;Max_cycle;Signal;HPM_P1;HPM_P2
2023/10/29 00:01:17;;;;;;;;;;;;;;;17.54;85.12;99453.09;5093307;28;862;-65
2023/10/29 00:03:44;;;;;;;;;;;;;;;17.52;85.23;99447.19;5093252;28;1917;-64
2023/10/29 00:06:11;;;;;;;;;;;;;;;17.43;85.65;99451.94;5093251;28;830;-66
2023/10/29 00:08:38;;;;;;;;;;;;;;;17.42;85.43;99461.59;5092364;28;862;-64
2023/10/29 00:11:05;;;;;;;;;;;;;;;17.43;84.50;99458.34;5093071;28;846;-65
2023/10/29 00:13:31;;;;;;;;;;;;;;;17.43;84.40;99457.53;5093128;28;830;-65
2023/10/29 00:15:58;;;;;;;;;;;;;;;17.42;83.60;99453.97;5093269;28;852;-64
2023/10/29 00:18:24;;;;;;;;;;;;;;;17.42;82.95;99453.97;5092931;28;971;-64
2023/10/29 00:20:51;;;;;;;;;;;;;;;17.43;82.43;99460.34;5093046;28;840;-64
2023/10/29 00:23:17;;;;;;;;;;;;;;;17.44;81.56;99451.50;5092458;28;1983;-64
2023/10/29 00:25:43;;;;;;;;;;;;;;;17.49;81.00;99461.28;5092970;28;806;-65
2023/10/29 00:28:11;;;;;;;;;;;;;;;17.50;80.62;99468.47;5092921;28;897;-63
2023/10/29 00:30:38;;;;;;;;;;;;;;;17.44;81.11;99459.09;5092859;28;806;-64
2023/10/29 00:33:06;;;;;;;;;;;;;;;17.39;81.07;99468.88;5092736;28;889;-64
2023/10/29 00:35:32;;;;;;;;;;;;;;;17.30;81.70;99469.59;5092746;28;848;-63
2023/10/29 00:37:59;;;;;;;;;;;;;;;17.22;82.31;99465.50;5092569;28;823;-64
2023/10/29 00:40:26;;;;;;;;;;;;;;;17.25;81.46;99472.97;5092614;28;865;-64
2023/10/29 00:42:53;;;;;;;;;;;;;;;17.30;80.94;99474.38;5092487;28;909;-64
2023/10/29 00:45:19;;;;;;;;;;;;;;;17.25;80.78;99475.75;5092453;28;1950;-64
2023/10/29 00:47:46;;;;;;;;;;;;;;;17.27;80.59;99472.53;5092543;28;889;-65
2023/10/29 00:50:13;;;;;;;;;;;;;;;17.21;80.64;99469.53;5092410;28;882;-64
2023/10/29 00:52:40;;;;;;;;;;;;;;;17.24;80.02;99465.84;5092711;28;850;-63
2023/10/29 00:55:06;;;;;;;;;;;;;;;17.27;79.50;99472.53;5092388;28;841;-64
2023/10/29 00:57:33;;;;;;;;;;;;;;;17.30;78.87;99475.19;5092327;28;814;-64
2023/10/29 00:59:59;;;;;;;;;;;;;;;17.31;78.40;99478.75;5092254;28;959;-64
2023/10/29 01:02:26;;;;;;;;;;;;;;;17.33;78.00;99490.25;5092353;28;851;-64
2023/10/29 01:04:53;;;;;;;;;;;;;;;17.34;77.94;99489.78;5092202;28;1956;-64
2023/10/29 01:07:19;;;;;;;;;;;;;;;17.39;77.55;99490.41;5092202;28;866;-64
2023/10/29 01:09:46;;;;;;;;;;;;;;;17.31;77.78;99484.34;5092196;28;829;-65
2023/10/29 01:12:16;;;;;;;;;;;;;;;17.30;77.67;99485.56;5092432;28;846;-65
2023/10/29 01:14:43;;;;;;;;;;;;;;;17.24;78.15;99490.97;5092050;28;842;-64
2023/10/29 01:17:10;;;;;;;;;;;;;;;17.26;77.74;99482.13;5091994;28;861;-63
2023/10/29 01:19:37;;;;;;;;;;;;;;;17.21;77.77;99483.50;5092114;28;825;-64
2023/10/29 01:22:04;;;;;;;;;;;;;;;17.23;77.37;99483.81;5092162;28;867;-64
2023/10/29 01:24:31;;;;;;;;;;;;;;;17.22;77.00;99482.28;5091646;28;1905;-63
2023/10/29 01:26:58;;;;;;;;;;;;;;;17.25;76.07;99477.78;5091974;28;955;-64
2023/10/29 01:29:24;;;;;;;;;;;;;;;17.25;75.07;99478.56;5091951;28;974;-64
2023/10/29 01:31:51;;;;;;;;;;;;;;;17.27;74.56;99490.03;5092058;28;787;-64
2023/10/29 01:34:17;;;;;;;;;;;;;;;17.30;73.70;99497.53;5091936;28;884;-64
2023/10/29 01:36:44;;;;;;;;;;;;;;;17.35;72.64;99491.34;5091643;28;864;-65
2023/10/29 01:39:11;;;;;;;;;;;;;;;17.35;72.15;99493.38;5092127;28;877;-64
2023/10/29 01:41:36;;;;;;;;;;;;;;;17.32;71.86;99500.63;5091816;28;881;-64
2023/10/29 01:44:02;;;;;;;;;;;;;;;17.42;71.18;99507.06;5091629;28;1893;-64
2023/10/29 01:46:29;;;;;;;;;;;;;;;17.40;70.79;99512.31;5091811;28;921;-64
2023/10/29 01:48:56;;;;;;;;;;;;;;;17.35;71.35;99521.28;5091894;28;806;-63
2023/10/29 01:51:22;;;;;;;;;;;;;;;17.24;71.76;99532.88;5091981;28;853;-63
2023/10/29 01:53:50;;;;;;;;;;;;;;;17.19;73.03;99530.63;5091914;28;838;-63
2023/10/29 01:56:17;;;;;;;;;;;;;;;17.03;75.64;99536.44;5091875;28;842;-64
2023/10/29 01:58:43;;;;;;;;;;;;;;;16.53;77.94;99516.56;5091831;28;870;-64
2023/10/29 02:01:11;;;;;;;;;;;;;;;16.41;79.81;99536.91;5091756;28;905;-64
2023/10/29 02:03:37;;;;;;;;;;;;;;;16.12;82.25;99543.41;5092049;28;1945;-64
2023/10/29 02:06:04;;;;;;;;;;;;;;;15.92;84.89;99544.41;5091604;28;869;-64
2023/10/29 02:08:32;;;;;;;;;;;;;;;15.76;86.43;99558.44;5091840;28;877;-64
2023/10/29 02:10:58;;;;;;;;;;;;;;;15.58;88.35;99549.81;5090505;28;878;-64
2023/10/29 02:13:25;;;;;;;;;;;;;;;15.48;88.96;99568.38;5091626;28;1153;-64
2023/10/29 02:15:52;;;;;;;;;;;;;;;15.51;89.25;99573.06;5091898;28;1164;-61
2023/10/29 02:18:18;;;;;;;;;;;;;;;15.54;88.87;99565.84;5091938;28;800;-63
2023/10/29 02:20:44;;;;;;;;;;;;;;;15.47;88.84;99578.75;5091410;28;1286;-64
2023/10/29 02:23:12;;;;;;;;;;;;;;;15.26;89.76;99584.94;5091068;28;1905;-64
2023/10/29 02:25:39;;;;;;;;;;;;;;;15.00;91.26;99589.59;5091450;28;1254;-64
2023/10/29 02:28:05;;;;;;;;;;;;;;;14.86;92.34;99597.09;5091388;28;980;-63
2023/10/29 02:30:32;;;;;;;;;;;;;;;14.72;93.60;99596.66;5091438;28;786;-64
2023/10/29 02:32:59;;;;;;;;;;;;;;;14.60;95.40;99600.94;5094952;28;966;-63
2023/10/29 02:35:25;;;;;;;;;;;;;;;14.55;96.18;99607.81;5094866;28;813;-63
2023/10/29 02:37:52;;;;;;;;;;;;;;;14.47;97.44;99598.81;5094916;28;908;-65
2023/10/29 02:40:19;;;;;;;;;;;;;;;14.31;98.69;99604.38;5094840;28;830;-65
2023/10/29 02:42:46;;;;;;;;;;;;;;;14.19;99.78;99607.81;5094852;28;814;-64
2023/10/29 02:45:12;;;;;;;;;;;;;;;14.09;100.00;99604.84;5094626;28;1938;-64
2023/10/29 02:47:39;;;;;;;;;;;;;;;13.99;100.00;99603.09;5094821;28;850;-64
2023/10/29 02:50:06;;;;;;;;;;;;;;;13.99;100.00;99596.75;5094694;28;893;-63
2023/10/29 02:52:32;;;;;;;;;;;;;;;13.98;100.00;99595.22;5094649;28;865;-64
2023/10/29 02:54:59;;;;;;;;;;;;;;;14.02;100.00;99602.25;5094629;28;841;-64
2023/10/29 02:57:28;;;;;;;;;;;;;;;14.08;100.00;99599.72;5094527;28;972;-64
2023/10/29 02:59:54;;;;;;;;;;;;;;;14.08;100.00;99608.88;5094565;28;923;-64
2023/10/29 03:02:21;;;;;;;;;;;;;;;14.05;100.00;99606.94;5094549;28;806;-64
2023/10/29 03:04:48;;;;;;;;;;;;;;;14.08;100.00;99602.50;5094247;28;1889;-64
2023/10/29 03:07:15;;;;;;;;;;;;;;;14.17;100.00;99597.16;5094303;28;802;-64
2023/10/29 03:09:42;;;;;;;;;;;;;;;14.18;100.00;99606.25;5094329;28;842;-64
2023/10/29 03:12:08;;;;;;;;;;;;;;;14.07;100.00;99603.72;5094187;28;878;-64
2023/10/29 03:14:34;;;;;;;;;;;;;;;13.76;100.00;99603.19;5094378;28;888;-64
2023/10/29 03:17:01;;;;;;;;;;;;;;;13.53;100.00;99606.84;5094105;28;830;-64
2023/10/29 03:19:28;;;;;;;;;;;;;;;13.27;100.00;99612.88;5094081;28;878;-64
2023/10/29 03:21:54;;;;;;;;;;;;;;;13.16;100.00;99614.28;5094331;28;873;-64
2023/10/29 03:24:21;;;;;;;;;;;;;;;13.10;100.00;99621.50;5093712;28;1910;-64
2023/10/29 03:26:48;;;;;;;;;;;;;;;12.94;100.00;99619.44;5093999;28;865;-64
2023/10/29 03:29:15;;;;;;;;;;;;;;;12.84;100.00;99621.16;5094027;28;841;-64
2023/10/29 03:31:42;;;;;;;;;;;;;;;12.90;100.00;99618.69;5093827;28;855;-63
2023/10/29 03:34:11;;;;;;;;;;;;;;;12.97;100.00;99624.91;5093737;28;787;-64
2023/10/29 03:36:38;;;;;;;;;;;;;;;13.03;100.00;99628.75;5093854;28;868;-64
2023/10/29 03:39:05;;;;;;;;;;;;;;;13.11;100.00;99634.19;5093711;28;897;-64
2023/10/29 03:41:32;;;;;;;;;;;;;;;13.11;100.00;99634.97;5093603;28;917;-64
2023/10/29 03:43:58;;;;;;;;;;;;;;;13.30;100.00;99639.03;5093461;28;1983;-64
2023/10/29 03:46:25;;;;;;;;;;;;;;;13.51;100.00;99642.59;5093610;28;800;-64
2023/10/29 03:48:52;;;;;;;;;;;;;;;13.64;100.00;99647.09;5093507;28;874;-64
2023/10/29 03:51:20;;;;;;;;;;;;;;;13.73;100.00;99654.06;5093476;28;842;-64
2023/10/29 03:53:47;;;;;;;;;;;;;;;13.82;100.00;99651.50;5093415;28;932;-64
2023/10/29 03:56:14;;;;;;;;;;;;;;;13.88;100.00;99658.88;5093600;28;869;-64
2023/10/29 03:58:40;;;;;;;;;;;;;;;13.91;100.00;99670.34;5093479;28;874;-64
2023/10/29 04:01:07;;;;;;;;;;;;;;;13.95;100.00;99662.72;5093277;28;856;-64
2023/10/29 04:03:33;;;;;;;;;;;;;;;13.95;100.00;99662.72;5093173;28;1953;-64
2023/10/29 04:06:00;;;;;;;;;;;;;;;13.86;100.00;99671.66;5093276;28;829;-65
2023/10/29 04:08:27;;;;;;;;;;;;;;;13.76;100.00;99672.63;5093198;28;844;-64
2023/10/29 04:10:53;;;;;;;;;;;;;;;13.68;100.00;99678.34;5093106;28;818;-64
2023/10/29 04:13:20;;;;;;;;;;;;;;;13.58;100.00;99668.22;5093201;28;858;-65
2023/10/29 04:15:47;;;;;;;;;;;;;;;13.55;100.00;99671.88;5093260;28;832;-64
2023/10/29 04:18:14;;;;;;;;;;;;;;;13.35;100.00;99673.81;5093079;28;837;-64
2023/10/29 04:20:41;;;;;;;;;;;;;;;13.19;100.00;99674.50;5092901;28;877;-64
2023/10/29 04:23:08;;;;;;;;;;;;;;;13.16;100.00;99667.00;5092486;28;1910;-64
2023/10/29 04:25:35;;;;;;;;;;;;;;;13.05;100.00;99676.28;5092897;28;826;-64
2023/10/29 04:28:01;;;;;;;;;;;;;;;13.01;100.00;99680.31;5091640;28;952;-64
2023/10/29 04:30:28;;;;;;;;;;;;;;;12.95;100.00;99682.81;5092773;28;845;-64
2023/10/29 04:32:55;;;;;;;;;;;;;;;12.99;100.00;99691.06;5092622;28;838;-64
2023/10/29 04:35:21;;;;;;;;;;;;;;;13.07;100.00;99698.84;5092674;28;849;-64
2023/10/29 04:37:48;;;;;;;;;;;;;;;13.15;100.00;99698.75;5092856;28;877;-64
2023/10/29 04:40:15;;;;;;;;;;;;;;;13.18;100.00;99695.88;5092702;28;798;-64
2023/10/29 04:42:42;;;;;;;;;;;;;;;13.17;100.00;99701.88;5092437;28;908;-64
2023/10/29 04:45:11;;;;;;;;;;;;;;;13.11;100.00;99709.88;5092632;28;1956;-64
2023/10/29 04:47:37;;;;;;;;;;;;;;;13.10;100.00;99702.78;5092466;28;853;-64
2023/10/29 04:50:05;;;;;;;;;;;;;;;13.10;100.00;99710.31;5092410;28;885;-64
2023/10/29 04:52:32;;;;;;;;;;;;;;;13.00;100.00;99717.63;5092282;28;834;-65
2023/10/29 04:55:00;;;;;;;;;;;;;;;12.95;100.00;99720.84;5092312;28;833;-65
2023/10/29 04:57:29;;;;;;;;;;;;;;;12.90;100.00;99721.34;5092363;28;846;-64
2023/10/29 04:59:56;;;;;;;;;;;;;;;12.84;100.00;99732.09;5092398;28;809;-64
2023/10/29 05:02:22;;;;;;;;;;;;;;;12.75;100.00;99729.09;5092418;28;889;-64
2023/10/29 05:04:51;;;;;;;;;;;;;;;12.65;100.00;99728.03;5092161;28;1890;-64
2023/10/29 05:07:17;;;;;;;;;;;;;;;12.62;100.00;99737.19;5092168;28;1250;-64
2023/10/29 05:09:44;;;;;;;;;;;;;;;12.59;100.00;99747.13;5092074;28;945;-64
2023/10/29 05:12:11;;;;;;;;;;;;;;;12.56;100.00;99739.63;5092146;28;958;-64
2023/10/29 05:14:37;;;;;;;;;;;;;;;12.63;100.00;99744.28;5092057;28;858;-64
2023/10/29 05:17:03;;;;;;;;;;;;;;;12.73;100.00;99751.69;5092086;28;917;-65
2023/10/29 05:19:30;;;;;;;;;;;;;;;12.96;100.00;99753.72;5091979;28;794;-64
2023/10/29 05:21:56;;;;;;;;;;;;;;;13.26;100.00;99760.38;5091999;28;830;-65
2023/10/29 05:24:22;;;;;;;;;;;;;;;13.54;100.00;99767.47;5091458;28;1905;-65
2023/10/29 05:26:49;;;;;;;;;;;;;;;13.87;100.00;99762.91;5092103;28;818;-65
2023/10/29 05:29:16;;;;;;;;;;;;;;;14.26;100.00;99766.13;5091956;28;798;-65
2023/10/29 05:31:43;;;;;;;;;;;;;;;14.62;100.00;99776.53;5090518;28;1296;-65
2023/10/29 05:34:11;;;;;;;;;;;;;;;14.88;100.00;99775.53;5090539;28;1443;-64
2023/10/29 05:36:38;;;;;;;;;;;;;;;15.13;100.00;99781.72;5091932;28;845;-65
2023/10/29 05:39:06;;;;;;;;;;;;;;;15.24;100.00;99788.59;5091788;28;921;-64
2023/10/29 05:41:33;;;;;;;;;;;;;;;15.46;100.00;99797.19;5090458;28;1288;-64
2023/10/29 05:44:00;;;;;;;;;;;;;;;15.75;100.00;99804.09;5091670;28;1890;-65
2023/10/29 05:46:27;;;;;;;;;;;;;;;15.96;100.00;99803.53;5091690;28;830;-66
2023/10/29 05:48:53;;;;;;;;;;;;;;;16.13;100.00;99801.47;5091802;28;794;-64
2023/10/29 05:51:20;;;;;;;;;;;;;;;16.35;100.00;99807.22;5091611;28;928;-64
2023/10/29 05:53:49;;;;;;;;;;;;;;;16.66;100.00;99810.31;5091910;28;837;-64
2023/10/29 05:56:18;;;;;;;;;;;;;;;16.91;99.17;99812.38;5091696;28;801;-64
2023/10/29 05:58:44;;;;;;;;;;;;;;;17.15;96.31;99823.19;5091645;28;817;-64
2023/10/29 06:01:11;;;;;;;;;;;;;;;17.23;93.84;99830.13;5091844;28;869;-64
2023/10/29 06:03:37;;;;;;;;;;;;;;;17.11;93.22;99839.28;5091622;28;1886;-65
2023/10/29 06:06:04;;;;;;;;;;;;;;;16.89;93.92;99830.78;5092689;28;881;-64
2023/10/29 06:08:31;;;;;;;;;;;;;;;16.79;93.06;99838.25;5095526;28;834;-64
2023/10/29 06:10:57;;;;;;;;;;;;;;;16.85;93.15;99842.06;5095505;28;818;-64
2023/10/29 06:13:24;;;;;;;;;;;;;;;17.00;92.70;99844.44;5095264;28;928;-64
2023/10/29 06:15:50;;;;;;;;;;;;;;;17.22;90.50;99850.13;5095525;28;814;-64
2023/10/29 06:18:17;;;;;;;;;;;;;;;17.64;88.12;99850.75;5095173;28;863;-64
2023/10/29 06:20:43;;;;;;;;;;;;;;;18.19;83.54;99846.94;5095290;28;857;-65
2023/10/29 06:23:10;;;;;;;;;;;;;;;18.38;81.14;99861.88;5094874;28;1970;-64
2023/10/29 06:25:36;;;;;;;;;;;;;;;18.22;80.13;99865.59;5095201;28;822;-65
2023/10/29 06:28:12;;;;;;;;;;;;;;;18.00;81.19;99869.16;5095107;28;893;-65
2023/10/29 06:30:39;;;;;;;;;;;;;;;17.90;82.08;99868.31;5093777;28;1234;-65
2023/10/29 06:33:05;;;;;;;;;;;;;;;17.86;82.26;99867.63;5095005;28;906;-66
2023/10/29 06:35:32;;;;;;;;;;;;;;;17.94;81.63;99862.56;5094889;28;945;-66
2023/10/29 06:37:59;;;;;;;;;;;;;;;18.12;80.20;99870.34;5094935;28;842;-67
2023/10/29 06:40:25;;;;;;;;;;;;;;;18.48;77.38;99867.06;5094794;28;901;-66
2023/10/29 06:42:52;;;;;;;;;;;;;;;19.00;74.30;99869.59;5094779;28;881;-66
2023/10/29 06:45:19;;;;;;;;;;;;;;;19.64;70.48;99874.66;5094656;28;1968;-66
2023/10/29 06:47:47;;;;;;;;;;;;;;;20.10;67.65;99877.56;5094739;28;948;-67
2023/10/29 06:50:13;;;;;;;;;;;;;;;20.65;64.35;99879.59;5094660;28;878;-67
2023/10/29 06:52:41;;;;;;;;;;;;;;;21.01;61.98;99876.69;5094671;28;913;-65
2023/10/29 06:55:09;;;;;;;;;;;;;;;21.48;59.14;99877.34;5093327;28;1201;-66
2023/10/29 06:57:35;;;;;;;;;;;;;;;22.10;56.95;99869.44;5094496;28;944;-65
2023/10/29 07:00:02;;;;;;;;;;;;;;;22.81;54.59;99862.13;5094336;28;909;-66
2023/10/29 07:02:28;;;;;;;;;;;;;;;23.47;51.94;99857.28;5094442;28;874;-66
2023/10/29 07:04:55;;;;;;;;;;;;;;;23.81;51.15;99859.34;5094681;28;1981;-66
2023/10/29 07:07:22;;;;;;;;;;;;;;;24.09;49.38;99858.91;5094271;28;803;-66
2023/10/29 07:09:48;;;;;;;;;;;;;;;24.04;48.55;99862.44;5094386;28;862;-66
2023/10/29 07:12:16;;;;;;;;;;;;;;;24.04;48.78;99857.53;5094226;28;815;-66
2023/10/29 07:14:43;;;;;;;;;;;;;;;24.32;48.35;99848.63;5094207;28;857;-66
2023/10/29 07:17:09;;;;;;;;;;;;;;;24.07;47.65;99852.19;5093976;28;845;-66
2023/10/29 07:19:36;;;;;;;;;;;;;;;23.37;48.98;99845.34;5094154;28;787;-66
2023/10/29 07:22:02;;;;;;;;;;;;;;;23.31;49.12;99848.06;5094042;28;814;-66
2023/10/29 07:24:29;;;;;;;;;;;;;;;23.74;47.96;99850.47;5093561;28;1909;-66
2023/10/29 07:26:56;;;;;;;;;;;;;;;24.43;46.84;99850.78;5094041;28;809;-67
2023/10/29 07:29:23;;;;;;;;;;;;;;;24.86;45.21;99851.75;5093897;28;854;-67
2023/10/29 07:31:50;;;;;;;;;;;;;;;24.96;44.86;99855.16;5093939;28;868;-67
2023/10/29 07:34:16;;;;;;;;;;;;;;;25.21;43.43;99853.59;5093806;28;869;-67
2023/10/29 07:36:46;;;;;;;;;;;;;;;24.56;44.17;99851.22;5093881;28;890;-67
2023/10/29 07:39:11;;;;;;;;;;;;;;;24.05;45.62;99853.47;5093812;28;838;-67
2023/10/29 07:41:38;;;;;;;;;;;;;;;24.52;44.48;99855.56;5093740;28;798;-68
2023/10/29 07:44:05;;;;;;;;;;;;;;;24.79;43.67;99866.34;5093515;28;1952;-67
2023/10/29 07:46:32;;;;;;;;;;;;;;;25.14;43.38;99868.19;5093593;28;946;-68
2023/10/29 07:48:59;;;;;;;;;;;;;;;25.22;43.19;99869.31;5093624;28;815;-69
2023/10/29 07:51:25;;;;;;;;;;;;;;;25.12;42.88;99873.56;5093451;28;959;-68
2023/10/29 07:53:52;;;;;;;;;;;;;;;25.22;42.45;99868.50;5093444;28;889;-68
2023/10/29 07:56:20;;;;;;;;;;;;;;;25.33;42.15;99867.81;5093401;28;889;-68
2023/10/29 07:58:47;;;;;;;;;;;;;;;25.27;42.22;99873.44;5093415;28;873;-68
2023/10/29 08:01:17;;;;;;;;;;;;;;;25.39;42.54;99874.28;5093276;28;846;-67
2023/10/29 08:03:45;;;;;;;;;;;;;;;25.45;41.82;99873.06;5093351;28;1881;-67
2023/10/29 08:06:13;;;;;;;;;;;;;;;25.32;42.26;99864.22;5093085;28;1275;-68
2023/10/29 08:08:38;;;;;;;;;;;;;;;25.38;42.46;99872.75;5093346;28;1264;-67
2023/10/29 08:11:06;;;;;;;;;;;;;;;25.37;42.61;99877.63;5093054;28;842;-68
2023/10/29 08:13:32;;;;;;;;;;;;;;;25.49;42.53;99880.53;5093077;28;837;-66
2023/10/29 08:15:59;;;;;;;;;;;;;;;25.71;41.75;99879.88;5093044;28;782;-67
2023/10/29 08:18:25;;;;;;;;;;;;;;;25.73;41.05;99886.59;5093050;28;1004;-67
2023/10/29 08:20:52;;;;;;;;;;;;;;;25.53;41.28;99887.50;5092897;28;799;-67
2023/10/29 08:23:18;;;;;;;;;;;;;;;25.51;41.55;99889.28;5092526;28;1963;-67
2023/10/29 08:25:48;;;;;;;;;;;;;;;25.50;42.19;99888.53;5092838;28;893;-66
2023/10/29 08:28:14;;;;;;;;;;;;;;;25.56;41.62;99885.72;5092345;28;1306;-68
2023/10/29 08:30:41;;;;;;;;;;;;;;;25.55;41.96;99892.66;5092389;28;822;-67
2023/10/29 08:33:07;;;;;;;;;;;;;;;25.66;41.53;99896.31;5092728;28;826;-67
2023/10/29 08:35:33;;;;;;;;;;;;;;;25.70;41.41;99895.34;5092738;28;891;-66
2023/10/29 08:38:00;;;;;;;;;;;;;;;25.73;41.34;99899.97;5092589;28;802;-67
2023/10/29 08:40:26;;;;;;;;;;;;;;;25.75;40.93;99903.06;5092934;28;816;-67
2023/10/29 08:42:53;;;;;;;;;;;;;;;25.89;40.52;99898.56;5092514;28;816;-68
2023/10/29 08:45:22;;;;;;;;;;;;;;;25.83;40.18;99904.91;5092449;28;1898;-67
2023/10/29 08:47:47;;;;;;;;;;;;;;;25.83;40.28;99901.31;5092334;28;897;-67
2023/10/29 08:50:14;;;;;;;;;;;;;;;25.89;40.09;99901.38;5092642;28;854;-68
2023/10/29 09:23:41;;;;;;;;;;;;;;;26.24;37.53;99884.81;5051404;22;1975;-58
2023/10/29 09:26:08;;;;;;;;;;;;;;;26.46;37.48;99891.81;5051878;28;829;-58
2023/10/29 09:28:34;;;;;;;;;;;;;;;26.63;37.08;99877.72;5051940;28;892;-58
2023/10/29 09:31:03;;;;;;;;;;;;;;;26.85;36.59;99874.13;5051767;28;810;-58
2023/10/29 09:33:30;;;;;;;;;;;;;;;26.91;36.91;99871.28;5051743;28;999;-58
2023/10/29 09:35:56;;;;;;;;;;;;;;;26.76;36.58;99875.16;5051759;28;964;-57
2023/10/29 09:38:23;;;;;;;;;;;;;;;26.66;36.45;99873.84;5051664;28;818;-57
2023/10/29 09:40:52;;;;;;;;;;;;;;;26.63;36.47;99867.16;5054057;28;835;-57
2023/10/29 09:43:20;;;;;;;;;;;;;;;26.76;36.59;99869.50;5055763;28;1898;-57
2023/10/29 09:45:48;;;;;;;;;;;;;;;26.93;36.32;99866.66;5056007;28;818;-57
2023/10/29 09:48:18;;;;;;;;;;;;;;;27.05;36.88;99868.19;5055832;28;861;-58
2023/10/29 09:50:44;;;;;;;;;;;;;;;27.11;35.47;99864.59;5055724;28;947;-57
2023/10/29 09:53:10;;;;;;;;;;;;;;;27.11;35.69;99867.44;5055486;28;880;-57
2023/10/29 09:55:38;;;;;;;;;;;;;;;26.94;35.53;99867.44;5055725;28;861;-57
2023/10/29 09:58:05;;;;;;;;;;;;;;;26.94;35.89;99871.03;5070928;28;1027;-57
2023/10/29 10:00:32;;;;;;;;;;;;;;;27.02;35.89;99872.06;5070924;28;1368;-57
2023/10/29 10:02:59;;;;;;;;;;;;;;;27.24;35.45;99867.72;5055479;28;858;-58
2023/10/29 10:05:28;;;;;;;;;;;;;;;27.17;35.40;99865.38;5055353;28;1885;-57
2023/10/29 10:07:57;;;;;;;;;;;;;;;27.12;35.37;99861.25;5055458;28;850;-57
2023/10/29 10:10:41;;;;;;;;;;;;;;;27.19;35.74;99857.88;5055307;28;897;-57
2023/10/29 10:13:09;;;;;;;;;;;;;;;27.27;34.90;99855.34;5055246;28;825;-57
2023/10/29 10:15:35;;;;;;;;;;;;;;;27.45;35.29;99854.00;5070675;28;1183;-57
2023/10/29 10:18:05;;;;;;;;;;;;;;;27.23;35.29;99861.28;5054003;28;873;-57
2023/10/29 10:20:35;;;;;;;;;;;;;;;27.06;35.43;99869.75;5055021;28;1044;-58
2023/10/29 10:23:02;;;;;;;;;;;;;;;27.08;35.53;99858.66;5054895;28;1391;-58
2023/10/29 10:25:30;;;;;;;;;;;;;;;27.16;34.83;99856.09;5055135;28;1977;-58
2023/10/29 10:27:56;;;;;;;;;;;;;;;27.13;35.42;99854.28;5054949;28;912;-57
2023/10/29 10:30:25;;;;;;;;;;;;;;;27.28;35.01;99851.97;5054938;28;860;-57
2023/10/29 10:32:52;;;;;;;;;;;;;;;27.36;34.94;99855.06;5054872;28;798;-57
2023/10/29 10:35:19;;;;;;;;;;;;;;;27.42;34.12;99841.63;5054854;28;842;-58
2023/10/29 10:37:54;;;;;;;;;;;;;;;27.28;34.75;99843.44;5054747;28;854;-57
2023/10/29 10:40:24;;;;;;;;;;;;;;;27.31;34.49;99843.72;5054716;28;843;-58
2023/10/29 10:42:55;;;;;;;;;;;;;;;27.43;34.01;99845.25;5054972;28;968;-58
2023/10/29 10:45:28;;;;;;;;;;;;;;;27.34;34.28;99837.78;5054594;28;1889;-57
2023/10/29 10:48:06;;;;;;;;;;;;;;;27.29;34.12;99839.34;5054946;28;830;-58
2023/10/29 10:50:34;;;;;;;;;;;;;;;27.22;34.27;99836.25;5054602;28;824;-58
2023/10/29 10:53:01;;;;;;;;;;;;;;;27.18;33.92;99836.47;5053855;28;844;-57
2023/10/29 10:55:29;;;;;;;;;;;;;;;27.25;34.68;99838.81;5054518;28;787;-57
2023/10/29 10:57:55;;;;;;;;;;;;;;;27.28;34.69;99834.16;5054678;28;893;-58
2023/10/29 11:00:22;;;;;;;;;;;;;;;27.48;33.91;99836.72;5054780;28;802;-57
2023/10/29 11:02:48;;;;;;;;;;;;;;;27.44;34.58;99827.69;5054317;28;893;-58
2023/10/29 11:05:16;;;;;;;;;;;;;;;27.67;33.73;99834.09;5054522;28;1953;-58
2023/10/29 11:07:43;;;;;;;;;;;;;;;27.67;34.26;99824.78;5054264;28;822;-58
2023/10/29 11:10:14;;;;;;;;;;;;;;;27.78;34.10;99835.31;5054286;28;885;-58
2023/10/29 11:12:41;;;;;;;;;;;;;;;28.09;33.25;99826.44;5054126;28;852;-58
2023/10/29 11:15:16;;;;;;;;;;;;;;;28.26;32.89;99828.41;5052861;28;1207;-58
2023/10/29 11:17:59;;;;;;;;;;;;;;;28.37;32.68;99824.75;5054096;28;860;-58
2023/10/29 11:20:46;;;;;;;;;;;;;;;28.34;33.14;99820.13;5053893;28;794;-58
2023/10/29 11:23:15;;;;;;;;;;;;;;;28.09;33.44;99822.81;5053699;28;1198;-59
2023/10/29 11:25:42;;;;;;;;;;;;;;;28.32;32.83;99828.41;5053748;28;1961;-58
2023/10/29 11:28:24;;;;;;;;;;;;;;;28.56;32.44;99822.06;5054124;28;1226;-59
2023/10/29 11:31:09;;;;;;;;;;;;;;;29.19;31.77;99826.72;5053863;28;826;-58
2023/10/29 11:33:36;;;;;;;;;;;;;;;29.54;30.82;99821.44;5053904;28;806;-58
2023/10/29 11:36:36;;;;;;;;;;;;;;;29.88;30.82;99819.75;5053840;28;835;-58
2023/10/29 11:39:15;;;;;;;;;;;;;;;30.36;29.80;99825.09;5031013;28;1402;-59
2023/10/29 11:41:43;;;;;;;;;;;;;;;30.32;29.78;99825.41;5053639;28;877;-59
2023/10/29 11:44:25;;;;;;;;;;;;;;;29.69;29.97;99830.34;5053546;28;1894;-59
2023/10/29 11:47:02;;;;;;;;;;;;;;;28.95;30.98;99832.34;5053584;28;1254;-59
2023/10/29 11:49:35;;;;;;;;;;;;;;;29.16;30.87;99827.00;5053437;28;853;-58
2023/10/29 11:52:04;;;;;;;;;;;;;;;29.39;30.72;99825.47;5053268;28;861;-58
2023/10/29 11:54:37;;;;;;;;;;;;;;;29.41;30.79;99828.56;5053423;28;893;-58
2023/10/29 11:57:05;;;;;;;;;;;;;;;29.24;31.35;99825.13;5053254;28;810;-58
2023/10/29 11:59:32;;;;;;;;;;;;;;;29.15;31.25;99825.47;5053280;28;818;-58
2023/10/29 12:01:59;;;;;;;;;;;;;;;28.91;31.38;99824.88;5053126;28;893;-58
2023/10/29 12:04:32;;;;;;;;;;;;;;;28.87;31.54;99830.09;5052083;28;1910;-58
2023/10/29 12:06:59;;;;;;;;;;;;;;;28.96;31.31;99831.06;5053067;28;825;-57
2023/10/29 12:09:27;;;;;;;;;;;;;;;28.94;31.01;99828.72;5053061;28;798;-57
2023/10/29 12:11:55;;;;;;;;;;;;;;;28.70;31.53;99824.53;5053011;28;791;-57
2023/10/29 12:14:40;;;;;;;;;;;;;;;28.99;31.58;99830.75;5052945;28;864;-58
2023/10/29 12:17:08;;;;;;;;;;;;;;;28.88;31.17;99825.94;5052980;28;817;-58
2023/10/29 12:19:37;;;;;;;;;;;;;;;29.02;31.45;99834.59;5052896;28;842;-58
2023/10/29 12:22:21;;;;;;;;;;;;;;;28.86;31.53;99833.47;5052805;28;1201;-58
2023/10/29 12:24:48;;;;;;;;;;;;;;;28.35;32.45;99821.66;5052639;28;1918;-58
2023/10/29 12:27:15;;;;;;;;;;;;;;;28.19;32.67;99824.06;5052690;28;865;-58
2023/10/29 12:29:41;;;;;;;;;;;;;;;27.68;33.21;99829.19;5052728;28;988;-58
2023/10/29 12:32:26;;;;;;;;;;;;;;;27.69;33.51;99825.03;5052716;28;835;-58
2023/10/29 12:34:53;;;;;;;;;;;;;;;28.50;32.99;99822.09;5052928;28;842;-58
2023/10/29 12:37:32;;;;;;;;;;;;;;;29.16;31.99;99821.31;5052502;28;837;-58
2023/10/29 12:39:59;;;;;;;;;;;;;;;29.82;31.04;99829.69;5052565;28;850;-58
2023/10/29 12:42:54;;;;;;;;;;;;;;;30.18;30.05;99827.41;5052404;28;818;-59
2023/10/29 12:45:31;;;;;;;;;;;;;;;29.96;30.16;99825.63;5043391;28;1902;-59
2023/10/29 12:48:10;;;;;;;;;;;;;;;29.41;31.01;99824.97;5052318;28;853;-59
2023/10/29 12:50:45;;;;;;;;;;;;;;;29.26;31.38;99825.38;5052377;28;881;-59
2023/10/29 12:53:12;;;;;;;;;;;;;;;29.20;31.61;99831.09;5052171;28;826;-59
2023/10/29 12:55:45;;;;;;;;;;;;;;;29.44;31.13;99824.63;5052230;28;829;-59
2023/10/29 12:58:12;;;;;;;;;;;;;;;29.63;30.82;99824.69;5052189;28;806;-59
2023/10/29 13:00:38;;;;;;;;;;;;;;;29.64;31.05;99831.19;5052081;28;898;-59
2023/10/29 13:03:05;;;;;;;;;;;;;;;29.76;30.51;99829.75;5052104;28;849;-59
2023/10/29 13:05:33;;;;;;;;;;;;;;;29.80;30.43;99827.38;5051994;28;1957;-59
2023/10/29 13:08:00;;;;;;;;;;;;;;;29.56;30.51;99827.38;5052062;28;802;-59
2023/10/29 13:10:25;;;;;;;;;;;;;;;28.83;30.59;99820.31;5052071;28;845;-59
2023/10/29 13:12:52;;;;;;;;;;;;;;;28.58;31.07;99823.06;5051963;28;782;-59
2023/10/29 13:15:19;;;;;;;;;;;;;;;28.57;30.97;99818.69;5051714;28;861;-59
2023/10/29 13:17:46;;;;;;;;;;;;;;;28.15;31.36;99820.72;5051711;28;859;-59
2023/10/29 13:20:12;;;;;;;;;;;;;;;27.47;32.67;99818.13;5051926;28;847;-59
2023/10/29 13:22:42;;;;;;;;;;;;;;;27.00;33.26;99823.59;5051837;28;1415;-58
2023/10/29 13:25:11;;;;;;;;;;;;;;;26.67;33.59;99830.84;5051798;28;1910;-58
2023/10/29 13:27:41;;;;;;;;;;;;;;;26.91;33.13;99821.03;5051742;28;842;-58
2023/10/29 13:30:08;;;;;;;;;;;;;;;27.25;33.10;99818.19;5052120;28;861;-59
2023/10/29 13:32:34;;;;;;;;;;;;;;;27.10;33.49;99818.44;5067606;28;1294;-58
2023/10/29 13:35:01;;;;;;;;;;;;;;;27.15;33.11;99814.06;5051881;28;838;-58
2023/10/29 13:37:28;;;;;;;;;;;;;;;27.37;33.21;99813.25;5050548;28;1219;-58